createdAt,value
2023-02-12T00:04:48.924Z,102515.97
2023-02-12T00:09:51.767Z,102506.56
2023-02-12T00:14:55.928Z,102516.63
2023-02-12T00:19:58.760Z,102514.22
2023-02-12T00:25:01.608Z,102517.25
2023-02-12T00:30:06.913Z,102518.59
2023-02-12T00:35:10.326Z,102515.88
2023-02-12T00:40:13.941Z,102527.59
2023-02-12T00:45:18.533Z,102528.31
2023-02-12T00:50:21.329Z,102530.25
2023-02-12T00:55:24.172Z,102538.63
2023-02-12T01:00:28.434Z,102531.75
2023-02-12T01:05:33.669Z,102539.13
2023-02-12T01:10:36.516Z,102536.59
2023-02-12T01:15:40.826Z,102534.78
2023-02-12T01:20:43.637Z,102537.22
2023-02-12T01:25:46.427Z,102540.38
2023-02-12T01:30:50.677Z,102549.63
2023-02-12T01:35:53.887Z,102545.50
2023-02-12T01:41:03.636Z,102550.09
2023-02-12T01:46:13.882Z,102561.13
2023-02-12T01:51:21.297Z,102552.97
2023-02-12T01:56:26.109Z,102550.16
2023-02-12T02:01:33.456Z,102552.97
2023-02-12T02:06:41.037Z,102551.19
2023-02-12T02:12:01.563Z,102549.13
2023-02-12T02:17:25.441Z,102550.72
2023-02-12T02:22:35.426Z,102539.88
2023-02-12T02:27:46.686Z,102531.22
2023-02-12T02:32:59.311Z,102535.31
2023-02-12T02:38:15.990Z,102525.81
2023-02-12T02:43:24.395Z,102532.09
2023-02-12T02:48:34.974Z,102516.16
2023-02-12T02:53:43.390Z,102523.13
2023-02-12T02:58:53.546Z,102523.66
2023-02-12T03:04:04.297Z,102523.25
2023-02-12T03:09:20.352Z,102532.19
2023-02-12T03:14:27.619Z,102526.34
2023-02-12T03:19:36.311Z,102530.53
2023-02-12T03:24:44.079Z,102530.25
2023-02-12T03:29:47.502Z,102525.13
2023-02-12T03:34:55.479Z,102525.13
2023-02-12T03:40:06.343Z,102530.84
2023-02-12T03:45:19.844Z,102525.84
2023-02-12T03:50:30.992Z,102528.56
2023-02-12T03:55:37.738Z,102527.47
2023-02-12T04:00:41.126Z,102538.28
2023-02-12T04:05:45.890Z,102545.03
2023-02-12T04:11:03.948Z,102561.44
2023-02-12T04:16:17.566Z,102561.06
2023-02-12T04:21:39.222Z,102571.41
2023-02-12T04:26:50.583Z,102577.50
2023-02-12T04:31:59.350Z,102581.19
2023-02-12T04:37:07.061Z,102595.53
2023-02-12T04:42:10.134Z,102593.63
2023-02-12T04:47:13.570Z,102591.00
2023-02-12T04:52:17.778Z,102600.06
2023-02-12T04:57:20.620Z,102596.72
2023-02-12T05:02:23.467Z,102599.94
2023-02-12T05:07:27.787Z,102603.69
2023-02-12T05:12:30.558Z,102597.47
2023-02-12T05:17:33.469Z,102601.44
2023-02-12T05:22:37.664Z,102598.97
2023-02-12T05:27:40.457Z,102608.19
2023-02-12T05:32:43.307Z,102597.22
2023-02-12T05:37:47.493Z,102593.13
2023-02-12T05:42:50.324Z,102590.94
2023-02-12T05:47:53.126Z,102599.59
2023-02-12T05:52:57.295Z,102596.03
2023-02-12T05:58:00.093Z,102588.28
2023-02-12T06:03:02.923Z,102597.16
2023-02-12T06:08:07.247Z,102598.69
2023-02-12T06:13:10.056Z,102596.63
2023-02-12T06:18:12.842Z,102594.94
2023-02-12T06:23:17.036Z,102590.56
2023-02-12T06:28:19.862Z,102599.44
2023-02-12T06:33:22.892Z,102600.66
2023-02-12T06:38:27.036Z,102598.47
2023-02-12T06:43:29.909Z,102597.44
2023-02-12T06:48:33.499Z,102611.53
2023-02-12T06:53:38.155Z,102623.38
2023-02-12T06:58:44.305Z,102615.63
2023-02-12T07:03:49.849Z,102626.97
2023-02-12T07:08:54.887Z,102640.06
2023-02-12T07:13:57.775Z,102635.16
2023-02-12T07:19:00.592Z,102644.03
2023-02-12T07:24:04.828Z,102654.09
2023-02-12T07:29:08.008Z,102666.81
2023-02-12T07:34:11.659Z,102674.00
2023-02-12T07:39:15.842Z,102678.91
2023-02-12T07:44:18.652Z,102683.44
2023-02-12T07:49:24.818Z,102683.91
2023-02-12T07:54:29.167Z,102682.50
2023-02-12T07:59:31.928Z,102684.63
2023-02-12T08:04:34.801Z,102683.53
2023-02-12T08:09:39.070Z,102692.78
2023-02-12T08:14:42.122Z,102693.03
2023-02-12T08:19:44.898Z,102695.66
2023-02-12T08:24:49.914Z,102710.06
2023-02-12T08:29:52.746Z,102709.97
2023-02-12T08:34:55.626Z,102719.25
2023-02-12T08:39:59.837Z,102722.44
2023-02-12T08:45:02.663Z,102721.41
2023-02-12T08:50:06.034Z,102718.69
2023-02-12T08:55:10.348Z,102733.38
2023-02-12T09:00:13.858Z,102725.13
2023-02-12T09:05:16.788Z,102737.63
2023-02-12T09:10:21.021Z,102735.50
2023-02-12T09:15:23.830Z,102741.25
2023-02-12T09:20:26.629Z,102746.88
2023-02-12T09:25:30.837Z,102744.25
2023-02-12T09:30:33.736Z,102750.13
2023-02-12T09:35:37.372Z,102752.56
2023-02-12T09:40:47.511Z,102758.56
2023-02-12T09:45:58.037Z,102750.34
2023-02-12T09:51:05.841Z,102764.13
2023-02-12T09:56:15.273Z,102768.88
2023-02-12T10:01:20.356Z,102771.34
2023-02-12T10:06:26.930Z,102768.13
2023-02-12T10:11:51.861Z,102760.38
2023-02-12T10:17:05.085Z,102769.88
2023-02-12T10:22:19.185Z,102766.63
2023-02-12T10:27:35.782Z,102759.56
2023-02-12T10:32:39.495Z,102762.72
2023-02-12T10:37:46.423Z,102774.09
2023-02-12T10:42:52.676Z,102772.06
2023-02-12T10:48:05.666Z,102769.13
2023-02-12T10:53:17.686Z,102759.94
2023-02-12T10:58:25.063Z,102769.34
2023-02-12T11:03:34.194Z,102758.94
2023-02-12T11:08:39.109Z,102751.66
2023-02-12T11:13:48.864Z,102751.34
2023-02-12T11:18:59.808Z,102750.13
2023-02-12T11:24:30.783Z,102747.81
2023-02-12T11:29:34.922Z,102744.78
2023-02-12T11:34:38.518Z,102737.81
2023-02-12T11:39:42.079Z,102734.91
2023-02-12T11:44:52.518Z,102728.88
2023-02-12T11:49:59.930Z,102733.16
2023-02-12T11:55:06.395Z,102724.34
2023-02-12T12:00:18.811Z,102721.66
2023-02-12T12:05:32.440Z,102718.50
2023-02-12T12:10:40.677Z,102718.16
2023-02-12T12:16:07.041Z,102716.47
2023-02-12T12:21:15.692Z,102702.84
2023-02-12T12:26:24.667Z,102706.16
2023-02-12T12:31:33.679Z,102699.91
2023-02-12T12:37:13.369Z,102713.78
2023-02-12T12:42:30.979Z,102706.84
2023-02-12T12:47:46.843Z,102698.56
2023-02-12T12:53:05.805Z,102685.34
2023-02-12T12:58:16.515Z,102685.75
2023-02-12T13:03:36.880Z,102679.31
2023-02-12T13:08:53.250Z,102680.50
2023-02-12T13:14:08.633Z,102671.75
2023-02-12T13:19:19.714Z,102665.34
2023-02-12T13:24:31.501Z,102670.94
2023-02-12T13:29:39.590Z,102662.91
2023-02-12T13:34:45.395Z,102664.91
2023-02-12T13:39:50.684Z,102676.38
2023-02-12T13:45:01.387Z,102664.72
2023-02-12T13:50:21.567Z,102661.41
2023-02-12T13:55:30.346Z,102663.31
2023-02-12T14:00:59.876Z,102662.13
2023-02-12T14:06:16.702Z,102674.47
2023-02-12T14:11:23.455Z,102675.03
2023-02-12T14:16:41.419Z,102672.47
2023-02-12T14:21:45.619Z,102662.63
2023-02-12T14:26:48.629Z,102661.88
2023-02-12T14:31:51.707Z,102661.84
2023-02-12T14:37:16.127Z,102671.88
2023-02-12T14:49:06.624Z,102668.22
2023-02-12T14:54:27.838Z,102667.47
2023-02-12T14:59:35.149Z,102652.53
2023-02-12T15:04:39.459Z,102651.75
2023-02-12T15:09:48.876Z,102657.75
2023-02-12T15:15:02.262Z,102652.63
2023-02-12T15:20:10.350Z,102649.09
2023-02-12T15:25:22.990Z,102650.13
2023-02-12T15:30:28.949Z,102654.75
2023-02-12T15:35:33.697Z,102654.00
2023-02-12T15:40:37.767Z,102650.78
2023-02-12T15:45:40.577Z,102646.53
2023-02-12T15:50:52.830Z,102651.00
2023-02-12T15:55:57.810Z,102654.56
2023-02-12T16:01:03.563Z,102654.72
2023-02-12T16:06:11.506Z,102655.66
2023-02-12T16:11:21.846Z,102660.19
2023-02-12T16:16:26.877Z,102654.00
2023-02-12T16:21:29.915Z,102661.56
2023-02-12T16:26:34.267Z,102652.66
2023-02-12T16:31:37.216Z,102657.13
2023-02-12T16:36:47.466Z,102657.13
2023-02-12T16:41:56.958Z,102656.44
2023-02-12T16:47:01.441Z,102654.69
2023-02-12T16:52:28.485Z,102659.06
2023-02-12T16:57:32.791Z,102657.31
2023-02-12T17:02:37.291Z,102669.03
2023-02-12T17:07:40.130Z,102662.00
2023-02-12T17:12:48.097Z,102667.25
2023-02-12T17:17:51.016Z,102671.69
2023-02-12T17:22:57.235Z,102681.56
2023-02-12T17:28:01.547Z,102687.06
2023-02-12T17:33:04.769Z,102686.13
2023-02-12T17:38:08.101Z,102685.25
2023-02-12T17:43:12.579Z,102705.75
2023-02-12T17:48:17.308Z,102702.13
2023-02-12T17:53:20.209Z,102716.41
2023-02-12T17:58:24.499Z,102707.72
2023-02-12T18:03:27.343Z,102698.72
2023-02-12T18:08:30.743Z,102699.59
2023-02-12T18:13:35.419Z,102688.13
2023-02-12T18:18:40.085Z,102699.78
2023-02-12T18:23:43.483Z,102696.13
2023-02-12T18:28:47.799Z,102697.91
2023-02-12T18:33:50.747Z,102693.63
2023-02-12T18:38:54.053Z,102702.50
2023-02-12T18:44:00.148Z,102700.81
2023-02-12T18:49:03.822Z,102700.81
2023-02-12T18:54:08.817Z,102696.31
2023-02-12T18:59:15.576Z,102703.59
2023-02-12T19:04:20.066Z,102692.78
2023-02-12T19:09:24.919Z,102699.06
2023-02-12T19:14:29.555Z,102695.66
2023-02-12T19:19:32.433Z,102698.44
2023-02-12T19:24:46.305Z,102696.75
2023-02-12T19:29:51.329Z,102692.31
2023-02-12T19:34:54.498Z,102699.59
2023-02-12T19:39:57.337Z,102698.69
2023-02-12T19:45:01.626Z,102695.13
2023-02-12T19:50:05.210Z,102711.19
2023-02-12T19:55:08.308Z,102708.50
2023-02-12T20:00:14.599Z,102704.06
2023-02-12T20:05:17.567Z,102690.75
2023-02-12T20:10:20.586Z,102704.22
2023-02-12T20:15:26.379Z,102703.34
2023-02-12T20:20:29.283Z,102709.72
2023-02-12T20:25:32.323Z,102707.13
2023-02-12T20:37:05.630Z,102713.56
2023-02-12T20:42:08.391Z,102701.13
2023-02-12T20:47:11.123Z,102713.56
2023-02-12T20:52:15.204Z,102705.56
2023-02-12T20:57:18.186Z,102702.97
2023-02-12T21:02:21.158Z,102700.38
2023-02-12T21:07:25.271Z,102699.50
2023-02-12T21:12:28.029Z,102697.84
2023-02-12T21:17:31.155Z,102699.69
2023-02-12T21:22:35.272Z,102697.84
2023-02-12T21:27:40.590Z,102694.16
2023-02-12T21:32:43.304Z,102702.03
2023-02-12T21:37:47.394Z,102696.66
2023-02-12T21:42:50.091Z,102697.59
2023-02-12T21:47:52.812Z,102694.06
2023-02-12T21:52:56.826Z,102697.63
2023-02-12T21:57:59.495Z,102692.25
2023-02-12T22:03:02.013Z,102688.72
2023-02-12T22:08:06.631Z,102687.97
2023-02-12T22:13:09.369Z,102680.16
2023-02-12T22:18:12.120Z,102678.28
2023-02-12T22:23:16.244Z,102679.13
2023-02-12T22:28:19.060Z,102686.38
2023-02-12T22:33:21.793Z,102682.81
2023-02-12T22:38:26.156Z,102684.50
2023-02-12T22:43:29.990Z,102677.31
2023-02-12T22:48:32.747Z,102680.06
2023-02-12T22:53:36.858Z,102682.66
2023-02-12T22:58:40.293Z,102687.91
2023-02-12T23:03:43.611Z,102690.50
2023-02-12T23:08:50.919Z,102679.88
2023-02-12T23:13:53.904Z,102683.47
2023-02-12T23:18:57.459Z,102674.59
2023-02-12T23:24:01.653Z,102667.31
2023-02-12T23:29:04.532Z,102666.47
2023-02-12T23:34:07.286Z,102665.56
2023-02-12T23:39:13.492Z,102668.22
2023-02-12T23:44:16.326Z,102670.97
2023-02-12T23:49:19.408Z,102667.34
2023-02-12T23:54:23.521Z,102649.50
2023-02-12T23:59:26.640Z,102654.81
